Time;durP1;ratioP1;P1;durP2;ratioP2;P2;SDS_P1;SDS_P2;PMS_P1;PMS_P2;Temp;Humidity;BMP_temperature;BMP_pressure;BME280_temperature;BME280_humidity;BME280_pressure;Samples;Min_cycle;Max_cycle;Signal;HPM_P1;HPM_P2
2022/06/09 00:00:17;;;;;;;;;;;;;;;20.43;50.89;100316.48;1722031;83;20192;-58
2022/06/09 00:03:33;;;;;;;;;;;;;;;20.39;50.96;100313.33;1723282;83;20259;-57
2022/06/09 00:06:49;;;;;;;;;;;;;;;20.37;51.00;100315.53;1724367;83;20229;-57
2022/06/09 00:09:59;;;;;;;;;;;;;;;20.35;51.07;100317.70;1721182;83;20215;-58
2022/06/09 00:13:04;;;;;;;;;;;;;;;20.34;51.18;100315.16;1723232;83;20590;-59
2022/06/09 00:16:11;;;;;;;;;;;;;;;20.33;51.24;100314.83;1721386;83;20678;-59
2022/06/09 00:19:18;;;;;;;;;;;;;;;20.32;51.31;100319.57;1722367;83;20560;-59
2022/06/09 00:22:22;;;;;;;;;;;;;;;20.29;51.32;100317.81;1723496;83;20630;-59
2022/06/09 00:25:30;;;;;;;;;;;;;;;20.23;51.35;100318.20;1724348;83;20255;-59
2022/06/09 00:28:36;;;;;;;;;;;;;;;20.14;51.37;100316.88;1723306;83;20203;-58
2022/06/09 00:31:40;;;;;;;;;;;;;;;20.04;51.49;100304.63;1722240;83;20248;-58
2022/06/09 00:34:46;;;;;;;;;;;;;;;19.99;51.61;100300.33;1723371;83;20204;-57
2022/06/09 00:37:50;;;;;;;;;;;;;;;19.94;51.68;100300.19;1723747;83;20540;-58
2022/06/09 00:40:55;;;;;;;;;;;;;;;19.90;51.69;100296.21;1721856;83;20186;-58
2022/06/09 00:44:00;;;;;;;;;;;;;;;19.85;51.74;100296.90;1721881;83;20619;-58
2022/06/09 00:47:12;;;;;;;;;;;;;;;19.82;51.83;100296.55;1721907;83;20228;-58
2022/06/09 00:50:22;;;;;;;;;;;;;;;19.81;51.89;100286.50;1721955;83;20580;-59
2022/06/09 00:53:30;;;;;;;;;;;;;;;19.79;51.97;100292.87;1722039;83;20272;-57
2022/06/09 00:56:34;;;;;;;;;;;;;;;19.78;52.05;100297.56;1721958;83;20243;-59
2022/06/09 00:59:40;;;;;;;;;;;;;;;19.78;52.13;100303.12;1721961;83;20215;-58
2022/06/09 01:02:45;;;;;;;;;;;;;;;19.74;52.12;100295.50;1700971;83;20596;-58
2022/06/09 01:05:51;;;;;;;;;;;;;;;19.69;52.14;100289.80;1721975;83;20319;-57
2022/06/09 01:12:44;;;;;;;;;;;;;;;19.57;52.29;100293.10;1698975;83;20208;-58
2022/06/09 01:16:13;;;;;;;;;;;;;;;19.50;52.34;100295.11;1697118;83;20222;-57
2022/06/09 01:19:37;;;;;;;;;;;;;;;19.44;52.45;100302.44;1697177;84;20254;-57
2022/06/09 01:23:16;;;;;;;;;;;;;;;19.42;52.54;100304.63;1696854;84;20291;-58
2022/06/09 01:26:31;;;;;;;;;;;;;;;19.40;52.66;100299.84;1696862;84;20254;-58
2022/06/09 01:29:41;;;;;;;;;;;;;;;19.37;52.71;100293.91;1685165;84;20456;-57
2022/06/09 01:32:50;;;;;;;;;;;;;;;19.31;52.66;100292.38;1696709;84;20226;-57
2022/06/09 01:36:14;;;;;;;;;;;;;;;19.24;52.68;100281.88;1696233;84;20294;-56
2022/06/09 01:39:18;;;;;;;;;;;;;;;19.16;52.78;100291.92;1684766;85;20210;-58
2022/06/09 01:42:32;;;;;;;;;;;;;;;19.07;52.94;100296.10;1697110;84;20273;-58
2022/06/09 01:46:05;;;;;;;;;;;;;;;18.99;53.02;100294.17;1696636;84;20202;-56
2022/06/09 01:49:28;;;;;;;;;;;;;;;18.94;53.18;100302.34;1696469;84;20251;-57
2022/06/09 01:52:34;;;;;;;;;;;;;;;18.91;53.30;100290.31;1697018;84;20286;-57
2022/06/09 01:55:40;;;;;;;;;;;;;;;18.89;53.35;100307.73;1696639;84;20198;-59
2022/06/09 01:58:49;;;;;;;;;;;;;;;18.83;53.44;100301.72;1696915;84;20534;-57
2022/06/09 02:02:00;;;;;;;;;;;;;;;18.81;53.54;100313.05;1696794;84;20648;-57
2022/06/09 02:05:12;;;;;;;;;;;;;;;18.80;53.64;100312.76;1684843;85;20226;-57
2022/06/09 02:08:18;;;;;;;;;;;;;;;18.79;53.68;100306.88;1697825;83;20190;-58
2022/06/09 02:11:22;;;;;;;;;;;;;;;18.80;53.74;100310.52;1693696;83;20258;-57
2022/06/09 02:14:31;;;;;;;;;;;;;;;18.78;53.79;100307.11;1687820;84;20206;-58
2022/06/09 02:17:36;;;;;;;;;;;;;;;18.79;53.90;100315.20;1687471;84;20175;-59
2022/06/09 02:20:42;;;;;;;;;;;;;;;18.80;54.00;100316.92;1670101;84;20242;-58
2022/06/09 02:23:47;;;;;;;;;;;;;;;18.82;54.02;100311.96;1684699;85;20202;-58
2022/06/09 02:26:53;;;;;;;;;;;;;;;18.83;54.04;100312.29;1688390;84;20238;-58
2022/06/09 02:29:57;;;;;;;;;;;;;;;18.82;53.99;100316.13;1688025;84;20202;-57
2022/06/09 02:33:02;;;;;;;;;;;;;;;18.80;54.07;100312.76;1688010;84;20218;-56
2022/06/09 02:36:12;;;;;;;;;;;;;;;18.83;54.19;100321.14;1688321;84;20226;-58
2022/06/09 02:39:16;;;;;;;;;;;;;;;18.87;54.29;100322.36;1684852;85;20231;-57
2022/06/09 02:42:23;;;;;;;;;;;;;;;18.92;54.35;100328.06;1689488;84;20499;-59
2022/06/09 02:45:28;;;;;;;;;;;;;;;18.98;54.38;100333.55;1688592;84;20186;-59
2022/06/09 02:48:33;;;;;;;;;;;;;;;19.01;54.32;100328.91;1687752;84;20226;-59
2022/06/09 02:51:40;;;;;;;;;;;;;;;19.05;54.33;100328.78;1688550;84;20194;-58
2022/06/09 02:54:45;;;;;;;;;;;;;;;19.11;54.38;100325.06;1688018;84;20222;-58
2022/06/09 02:57:50;;;;;;;;;;;;;;;19.20;54.46;100321.45;1688914;84;20198;-57
2022/06/09 03:00:56;;;;;;;;;;;;;;;19.30;54.54;100322.61;1687882;84;20215;-56
2022/06/09 03:04:04;;;;;;;;;;;;;;;19.38;54.58;100322.82;1687231;84;20235;-58
2022/06/09 03:07:09;;;;;;;;;;;;;;;19.45;54.55;100322.73;1688650;84;20223;-58
2022/06/09 03:10:14;;;;;;;;;;;;;;;19.51;54.58;100324.56;1662538;85;20238;-57
2022/06/09 03:13:19;;;;;;;;;;;;;;;19.56;54.61;100319.16;1695264;83;20240;-54
2022/06/09 03:16:23;;;;;;;;;;;;;;;19.62;54.67;100322.37;1673106;84;20241;-52
2022/06/09 03:19:30;;;;;;;;;;;;;;;19.67;54.68;100318.35;1680560;85;20207;-54
2022/06/09 03:22:35;;;;;;;;;;;;;;;19.71;54.70;100319.03;1695337;84;20182;-53
2022/06/09 03:25:42;;;;;;;;;;;;;;;19.74;54.61;100318.55;1680325;85;20293;-54
2022/06/09 03:28:47;;;;;;;;;;;;;;;19.69;54.63;100320.36;1684413;85;20242;-53
2022/06/09 03:31:53;;;;;;;;;;;;;;;19.69;54.73;100314.80;1694937;84;20194;-54
2022/06/09 03:34:58;;;;;;;;;;;;;;;19.75;54.83;100306.91;1694617;84;20302;-54
2022/06/09 03:38:02;;;;;;;;;;;;;;;19.86;54.93;100317.20;1694648;85;20781;-55
2022/06/09 03:41:07;;;;;;;;;;;;;;;19.98;54.99;100311.16;1694067;84;20285;-53
2022/06/09 03:44:12;;;;;;;;;;;;;;;20.12;55.06;100316.80;1692475;84;20815;-52
2022/06/09 03:47:17;;;;;;;;;;;;;;;20.27;55.13;100314.41;1667075;85;20288;-52
2022/06/09 03:50:26;;;;;;;;;;;;;;;20.44;55.15;100312.06;1665945;85;20347;-52
2022/06/09 03:53:33;;;;;;;;;;;;;;;20.61;55.08;100318.59;1661738;86;20248;-53
2022/06/09 03:56:39;;;;;;;;;;;;;;;20.72;55.06;100309.95;1652309;86;20281;-52
2022/06/09 03:59:43;;;;;;;;;;;;;;;20.80;54.98;100318.75;1666860;85;20315;-53
2022/06/09 04:02:50;;;;;;;;;;;;;;;20.88;54.94;100320.34;1652073;87;20212;-53
2022/06/09 04:05:55;;;;;;;;;;;;;;;20.94;54.89;100322.14;1667176;85;20216;-53
2022/06/09 04:09:01;;;;;;;;;;;;;;;21.01;54.83;100320.66;1652451;86;20257;-52
2022/06/09 04:12:09;;;;;;;;;;;;;;;21.05;54.77;100325.48;1667301;85;20273;-55
2022/06/09 04:15:16;;;;;;;;;;;;;;;21.08;54.73;100319.42;1656714;86;20249;-54
2022/06/09 04:18:19;;;;;;;;;;;;;;;21.14;54.70;100317.04;1662081;86;20572;-53
2022/06/09 04:21:30;;;;;;;;;;;;;;;21.18;54.70;100318.25;1662149;85;20225;-54
2022/06/09 04:24:36;;;;;;;;;;;;;;;21.20;54.67;100327.19;1656807;86;20209;-54
2022/06/09 04:27:43;;;;;;;;;;;;;;;21.20;54.61;100316.05;1662071;86;20192;-53
2022/06/09 04:30:48;;;;;;;;;;;;;;;21.20;54.56;100314.66;1661863;85;20623;-52
2022/06/09 04:33:54;;;;;;;;;;;;;;;21.24;54.62;100313.09;1657011;87;20509;-54
2022/06/09 04:36:58;;;;;;;;;;;;;;;21.30;54.61;100313.48;1661977;86;20244;-54
2022/06/09 04:40:05;;;;;;;;;;;;;;;21.41;54.62;100316.78;1661814;85;20533;-53
2022/06/09 04:43:11;;;;;;;;;;;;;;;21.49;54.63;100314.99;1638858;87;20223;-53
2022/06/09 04:46:16;;;;;;;;;;;;;;;21.60;54.68;100318.28;1657053;87;20543;-53
2022/06/09 04:49:21;;;;;;;;;;;;;;;21.73;54.74;100316.58;1662058;86;20216;-53
2022/06/09 04:52:25;;;;;;;;;;;;;;;21.89;54.74;100317.20;1673717;83;20203;-53
2022/06/09 04:55:32;;;;;;;;;;;;;;;22.01;54.74;100317.97;1665606;85;20220;-53
2022/06/09 04:58:38;;;;;;;;;;;;;;;22.13;54.75;100314.58;1661785;85;20258;-53
2022/06/09 05:01:46;;;;;;;;;;;;;;;22.25;54.70;100317.27;1657078;86;20331;-52
2022/06/09 05:04:53;;;;;;;;;;;;;;;22.34;54.71;100306.00;1663513;86;20541;-51
2022/06/09 05:08:01;;;;;;;;;;;;;;;22.46;54.71;100315.11;1689458;85;20550;-58
2022/06/09 05:11:08;;;;;;;;;;;;;;;22.57;54.63;100318.39;1689831;84;20266;-58
2022/06/09 05:14:15;;;;;;;;;;;;;;;22.68;54.60;100314.65;1684814;82;20575;-54
2022/06/09 05:17:21;;;;;;;;;;;;;;;22.80;54.54;100322.92;1686773;85;20253;-58
2022/06/09 05:20:29;;;;;;;;;;;;;;;22.90;54.48;100320.26;1690157;84;20538;-54
2022/06/09 05:23:35;;;;;;;;;;;;;;;23.01;54.40;100316.50;1691400;85;20253;-55
2022/06/09 05:26:41;;;;;;;;;;;;;;;23.09;54.25;100320.25;1685461;85;20625;-56
2022/06/09 05:29:46;;;;;;;;;;;;;;;23.16;54.21;100325.11;1682737;83;20246;-56
2022/06/09 05:32:51;;;;;;;;;;;;;;;23.23;54.21;100327.17;1660449;86;20220;-55
2022/06/09 05:36:00;;;;;;;;;;;;;;;23.32;54.22;100325.63;1693687;85;20253;-57
2022/06/09 05:45:52;;;;;;;;;;;;;;;23.53;53.98;100327.58;1693574;85;20283;-56
2022/06/09 05:48:58;;;;;;;;;;;;;;;23.59;53.91;100331.54;1694304;84;20258;-55
2022/06/09 05:52:05;;;;;;;;;;;;;;;23.67;53.84;100327.45;1688109;85;20601;-58
2022/06/09 05:55:10;;;;;;;;;;;;;;;23.73;53.73;100333.39;1692910;84;20563;-56
2022/06/09 05:58:16;;;;;;;;;;;;;;;23.79;53.61;100331.48;1693638;85;20266;-58
2022/06/09 06:01:20;;;;;;;;;;;;;;;23.84;53.53;100335.73;1672136;83;20228;-56
2022/06/09 06:04:26;;;;;;;;;;;;;;;23.88;53.42;100330.74;1664466;86;20613;-57
2022/06/09 06:07:31;;;;;;;;;;;;;;;23.97;53.36;100334.80;1664962;86;20216;-57
2022/06/09 06:10:35;;;;;;;;;;;;;;;24.05;53.26;100328.73;1666146;86;20280;-56
2022/06/09 06:13:39;;;;;;;;;;;;;;;24.11;53.14;100323.47;1666513;86;20257;-57
2022/06/09 06:16:46;;;;;;;;;;;;;;;24.19;53.11;100320.19;1649881;82;20722;-56
2022/06/09 06:19:56;;;;;;;;;;;;;;;24.27;53.07;100328.09;1637690;87;20218;-60
2022/06/09 06:23:00;;;;;;;;;;;;;;;24.36;52.94;100326.48;1638110;87;20222;-58
2022/06/09 06:26:06;;;;;;;;;;;;;;;24.45;52.84;100322.66;1660156;84;20256;-61
2022/06/09 06:29:12;;;;;;;;;;;;;;;24.54;52.75;100326.09;1664974;86;20217;-60
2022/06/09 06:32:16;;;;;;;;;;;;;;;24.63;52.67;100325.02;1664634;84;20639;-59
2022/06/09 06:35:22;;;;;;;;;;;;;;;24.71;52.55;100321.74;1650380;86;20565;-61
2022/06/09 06:38:28;;;;;;;;;;;;;;;24.77;52.43;100320.11;1637424;88;20262;-57
2022/06/09 06:41:34;;;;;;;;;;;;;;;24.88;52.38;100330.27;1652920;86;20239;-58
2022/06/09 06:44:40;;;;;;;;;;;;;;;24.99;52.34;100326.41;1645295;87;20221;-60
2022/06/09 06:47:46;;;;;;;;;;;;;;;25.12;52.25;100325.66;1664945;86;20228;-56
2022/06/09 06:50:54;;;;;;;;;;;;;;;25.23;52.06;100329.62;1648717;87;20586;-57
2022/06/09 06:53:58;;;;;;;;;;;;;;;25.29;51.93;100328.52;1664516;84;20615;-54
2022/06/09 06:57:05;;;;;;;;;;;;;;;25.38;51.85;100338.14;1623529;88;20643;-56
2022/06/09 07:00:13;;;;;;;;;;;;;;;25.47;51.71;100330.03;1602270;87;20253;-56
2022/06/09 07:03:20;;;;;;;;;;;;;;;25.51;51.50;100326.43;1656010;86;20529;-57
2022/06/09 07:06:27;;;;;;;;;;;;;;;25.57;51.37;100324.47;1656323;85;20223;-55
2022/06/09 07:09:33;;;;;;;;;;;;;;;25.62;51.19;100332.91;1651976;85;20224;-55
2022/06/09 07:12:44;;;;;;;;;;;;;;;25.68;51.10;100333.20;1661605;85;20224;-55
2022/06/09 07:15:47;;;;;;;;;;;;;;;25.77;51.05;100325.92;1657790;86;20262;-56
2022/06/09 07:18:54;;;;;;;;;;;;;;;25.86;50.90;100324.28;1669955;83;20232;-56
2022/06/09 07:22:00;;;;;;;;;;;;;;;25.92;50.70;100328.78;1665352;86;20854;-57
2022/06/09 07:25:08;;;;;;;;;;;;;;;25.96;50.54;100326.54;1672949;85;20917;-55
2022/06/09 07:28:14;;;;;;;;;;;;;;;25.99;50.46;100330.19;1688316;85;20229;-57
2022/06/09 07:31:19;;;;;;;;;;;;;;;26.02;50.32;100328.84;1692872;85;20257;-55
2022/06/09 07:34:25;;;;;;;;;;;;;;;26.11;50.26;100327.16;1692004;85;20225;-58
2022/06/09 07:37:30;;;;;;;;;;;;;;;26.25;50.21;100330.55;1693885;85;20287;-56
2022/06/09 07:40:36;;;;;;;;;;;;;;;26.48;50.14;100333.92;1694515;85;20611;-56
2022/06/09 07:43:41;;;;;;;;;;;;;;;26.66;49.92;100323.53;1691182;85;20526;-54
2022/06/09 07:46:47;;;;;;;;;;;;;;;26.82;49.78;100323.25;1670155;83;20212;-56
2022/06/09 07:49:55;;;;;;;;;;;;;;;27.01;49.53;100327.70;1665531;86;20490;-58
2022/06/09 07:53:08;;;;;;;;;;;;;;;27.22;49.10;100328.77;1860127;76;20548;-54
2022/06/09 07:56:15;;;;;;;;;;;;;;;27.28;48.95;100332.42;1706849;82;20240;-56
2022/06/09 07:59:21;;;;;;;;;;;;;;;27.44;48.86;100332.65;1699598;84;20262;-55
2022/06/09 08:02:25;;;;;;;;;;;;;;;27.58;48.63;100330.34;1680124;85;20220;-57
2022/06/09 08:05:30;;;;;;;;;;;;;;;27.66;48.44;100328.34;1721366;83;20336;-56
2022/06/09 08:08:35;;;;;;;;;;;;;;;27.71;48.22;100328.31;1763560;80;20672;-56
2022/06/09 08:11:41;;;;;;;;;;;;;;;27.74;48.01;100333.36;1751217;81;20220;-56
2022/06/09 08:14:47;;;;;;;;;;;;;;;27.69;47.81;100331.13;1742975;82;20281;-56
2022/06/09 08:17:54;;;;;;;;;;;;;;;27.59;47.62;100337.64;1757998;81;20241;-56
2022/06/09 08:21:00;;;;;;;;;;;;;;;27.59;47.54;100325.56;1769981;81;20524;-55
2022/06/09 08:24:16;;;;;;;;;;;;;;;27.66;47.43;100328.89;1774251;81;20206;-56
2022/06/09 08:27:21;;;;;;;;;;;;;;;27.71;47.29;100325.50;1775269;81;20189;-56
2022/06/09 08:30:27;;;;;;;;;;;;;;;27.74;47.19;100329.14;1775239;80;20205;-60
2022/06/09 08:33:33;;;;;;;;;;;;;;;27.90;47.08;100327.66;1772926;80;20543;-59
2022/06/09 08:36:40;;;;;;;;;;;;;;;28.06;46.98;100317.98;1773524;81;20217;-60
2022/06/09 08:39:47;;;;;;;;;;;;;;;28.25;46.85;100314.75;1774288;81;20241;-60
2022/06/09 08:43:16;;;;;;;;;;;;;;;28.45;46.62;100318.80;1747477;80;20209;-58
2022/06/09 08:46:56;;;;;;;;;;;;;;;28.59;46.38;100324.09;1703706;84;20856;-60
2022/06/09 08:50:23;;;;;;;;;;;;;;;28.78;46.20;100317.40;1709445;83;20202;-53
2022/06/09 08:53:41;;;;;;;;;;;;;;;28.98;45.91;100312.98;1758460;77;20209;-57
2022/06/09 08:56:47;;;;;;;;;;;;;;;29.09;45.51;100308.94;1759138;81;20328;-56
2022/06/09 08:59:55;;;;;;;;;;;;;;;29.17;45.37;100304.61;1759708;80;20483;-55
2022/06/09 09:03:03;;;;;;;;;;;;;;;29.27;45.30;100318.61;1751066;80;20205;-54
2022/06/09 09:06:21;;;;;;;;;;;;;;;29.31;45.04;100312.63;1762346;80;20658;-58
2022/06/09 09:09:28;;;;;;;;;;;;;;;29.17;44.53;100304.05;1770415;80;20877;-53
2022/06/09 09:12:40;;;;;;;;;;;;;;;29.16;44.37;100303.77;1762889;80;20207;-55
2022/06/09 09:15:48;;;;;;;;;;;;;;;29.17;44.25;100307.44;1759366;80;20396;-54
2022/06/09 09:19:20;;;;;;;;;;;;;;;29.18;44.20;100292.18;1749905;80;20210;-55
2022/06/09 09:22:54;;;;;;;;;;;;;;;29.38;44.20;100296.19;1751382;80;20516;-56
2022/06/09 09:26:24;;;;;;;;;;;;;;;29.61;44.05;100292.48;1751305;80;20239;-57
2022/06/09 09:30:00;;;;;;;;;;;;;;;29.85;43.82;100298.94;1701800;83;20716;-63
2022/06/09 09:33:07;;;;;;;;;;;;;;;30.00;43.52;100288.00;1753451;80;20245;-62
2022/06/09 09:36:16;;;;;;;;;;;;;;;30.08;43.12;100288.13;1766826;80;20243;-62
2022/06/09 09:39:24;;;;;;;;;;;;;;;30.08;42.94;100294.37;1773060;81;20298;-62
2022/06/09 09:42:42;;;;;;;;;;;;;;;30.17;42.96;100285.45;1765487;80;20228;-62
2022/06/09 09:45:46;;;;;;;;;;;;;;;30.23;42.79;100290.75;1734273;82;20212;-62
2022/06/09 09:48:52;;;;;;;;;;;;;;;30.24;42.69;100292.42;1767947;80;20205;-61
2022/06/09 09:51:59;;;;;;;;;;;;;;;30.21;42.50;100295.86;1764736;80;20237;-61
2022/06/09 09:55:04;;;;;;;;;;;;;;;30.08;42.34;100299.42;1742657;81;20241;-62
2022/06/09 09:58:29;;;;;;;;;;;;;;;29.97;42.21;100295.67;1763116;80;20410;-59
2022/06/09 10:08:41;;;;;;;;;;;;;;;30.04;42.02;100281.42;1771456;80;20217;-62
2022/06/09 10:12:07;;;;;;;;;;;;;;;30.23;41.99;100275.78;1770933;81;20209;-61
2022/06/09 10:15:31;;;;;;;;;;;;;;;30.43;41.83;100281.92;1757791;80;20278;-60
2022/06/09 10:19:01;;;;;;;;;;;;;;;30.59;41.65;100275.42;1772047;80;20210;-60
2022/06/09 10:22:30;;;;;;;;;;;;;;;30.78;41.60;100265.52;1750963;80;20223;-60
2022/06/09 10:25:48;;;;;;;;;;;;;;;31.06;41.50;100267.22;1758423;80;20216;-62
2022/06/09 10:29:08;;;;;;;;;;;;;;;31.31;41.37;100266.16;1751985;80;20229;-63
2022/06/09 10:32:25;;;;;;;;;;;;;;;31.57;41.19;100250.87;1742121;81;20203;-61
2022/06/09 10:35:47;;;;;;;;;;;;;;;31.76;40.93;100258.64;1764314;80;20569;-61
2022/06/09 10:38:57;;;;;;;;;;;;;;;31.91;40.70;100263.39;1773733;80;20574;-61
2022/06/09 10:42:09;;;;;;;;;;;;;;;32.02;40.38;100263.98;1753829;80;20699;-60
2022/06/09 10:45:53;;;;;;;;;;;;;;;32.06;40.10;100262.20;1741814;82;20236;-63
2022/06/09 10:55:53;;;;;;;;;;;;;;;31.94;39.31;100252.00;1704689;81;20274;-62
2022/06/09 10:59:19;;;;;;;;;;;;;;;31.71;39.31;100250.27;1708447;83;20215;-64
2022/06/09 11:02:29;;;;;;;;;;;;;;;31.66;39.12;100248.39;1703837;83;20594;-61
2022/06/09 11:05:47;;;;;;;;;;;;;;;31.19;38.84;100250.23;1707090;82;20735;-63
2022/06/09 11:08:59;;;;;;;;;;;;;;;30.84;38.81;100243.06;1708046;83;20215;-63
2022/06/09 11:12:27;;;;;;;;;;;;;;;30.60;38.79;100240.37;1689920;83;20237;-60
2022/06/09 11:15:54;;;;;;;;;;;;;;;30.40;38.75;100241.58;1729084;82;20208;-63
2022/06/09 11:19:27;;;;;;;;;;;;;;;30.38;38.83;100234.57;1688366;83;20236;-62
2022/06/09 11:23:00;;;;;;;;;;;;;;;30.55;38.79;100237.64;1709335;83;20215;-62
2022/06/09 11:26:19;;;;;;;;;;;;;;;30.81;38.82;100228.95;1705884;83;20209;-61
2022/06/09 11:29:49;;;;;;;;;;;;;;;30.99;38.74;100217.28;1699442;84;20229;-63
2022/06/09 11:33:08;;;;;;;;;;;;;;;31.23;38.68;100230.07;1705604;83;20592;-61
2022/06/09 11:36:26;;;;;;;;;;;;;;;31.40;38.35;100224.63;1708449;83;20258;-62
2022/06/09 11:39:39;;;;;;;;;;;;;;;31.45;38.14;100222.25;1704002;83;20508;-65
2022/06/09 11:42:47;;;;;;;;;;;;;;;31.29;37.90;100217.48;1698080;83;20206;-62
2022/06/09 11:46:05;;;;;;;;;;;;;;;31.16;37.86;100226.81;1720115;83;20214;-63
2022/06/09 11:49:14;;;;;;;;;;;;;;;31.04;37.84;100230.77;1721005;83;20218;-63
2022/06/09 11:52:21;;;;;;;;;;;;;;;30.82;37.64;100232.63;1721297;83;20215;-62
2022/06/09 11:59:01;;;;;;;;;;;;;;;30.30;37.54;100231.04;1738057;82;20281;-59
2022/06/09 12:02:25;;;;;;;;;;;;;;;30.32;37.63;100232.39;1724748;83;20226;-58
2022/06/09 12:05:53;;;;;;;;;;;;;;;30.35;37.62;100221.88;1724576;83;20215;-60
2022/06/09 12:09:34;;;;;;;;;;;;;;;30.18;37.44;100226.39;1723936;83;20254;-58
2022/06/09 12:12:45;;;;;;;;;;;;;;;30.00;37.37;100218.22;1724275;83;20595;-59
2022/06/09 12:16:11;;;;;;;;;;;;;;;29.96;37.38;100220.00;1698190;83;20664;-59
2022/06/09 12:19:31;;;;;;;;;;;;;;;30.07;37.45;100222.92;1693637;85;20221;-60
2022/06/09 12:22:52;;;;;;;;;;;;;;;30.17;37.46;100219.93;1709837;83;20567;-60
2022/06/09 12:26:21;;;;;;;;;;;;;;;30.23;37.41;100219.28;1714927;83;20206;-59
2022/06/09 12:29:46;;;;;;;;;;;;;;;30.27;37.22;100216.94;1716153;82;20543;-60
2022/06/09 12:33:00;;;;;;;;;;;;;;;30.26;37.16;100218.09;1715808;84;20242;-58
2022/06/09 12:36:13;;;;;;;;;;;;;;;30.31;37.04;100212.93;1715590;84;20725;-59
2022/06/09 12:39:29;;;;;;;;;;;;;;;30.34;37.03;100214.56;1715400;84;20286;-59
2022/06/09 12:42:40;;;;;;;;;;;;;;;30.34;37.05;100210.33;1715079;84;20203;-57
2022/06/09 12:45:44;;;;;;;;;;;;;;;30.36;37.09;100210.87;1709502;82;20549;-58
2022/06/09 12:48:49;;;;;;;;;;;;;;;30.37;36.98;100208.30;1716215;82;20214;-59
2022/06/09 12:51:55;;;;;;;;;;;;;;;30.34;36.89;100196.20;1703973;83;20223;-58
2022/06/09 12:55:06;;;;;;;;;;;;;;;30.40;36.85;100195.52;1698795;83;20205;-58
2022/06/09 12:58:26;;;;;;;;;;;;;;;30.44;36.83;100199.42;1717326;83;20219;-59
2022/06/09 13:01:35;;;;;;;;;;;;;;;30.48;36.78;100199.89;1727470;83;20214;-59
2022/06/09 13:04:43;;;;;;;;;;;;;;;30.47;36.64;100205.29;1727776;83;20203;-61
2022/06/09 13:08:06;;;;;;;;;;;;;;;30.47;36.55;100200.20;1728741;82;20230;-61
2022/06/09 13:11:14;;;;;;;;;;;;;;;30.42;36.40;100194.08;1752377;80;20685;-59
2022/06/09 13:14:20;;;;;;;;;;;;;;;30.43;36.39;100197.16;1744109;82;20200;-60
2022/06/09 13:17:32;;;;;;;;;;;;;;;30.47;36.38;100196.81;1744228;82;20199;-59
2022/06/09 13:20:38;;;;;;;;;;;;;;;30.53;36.32;100194.15;1745527;81;20966;-59
2022/06/09 13:23:42;;;;;;;;;;;;;;;30.54;36.21;100190.16;1744637;82;20516;-59
2022/06/09 13:26:51;;;;;;;;;;;;;;;30.55;36.13;100189.03;1762016;81;20192;-59
2022/06/09 13:30:17;;;;;;;;;;;;;;;30.40;35.97;100185.06;1753536;80;20243;-59
2022/06/09 13:33:44;;;;;;;;;;;;;;;30.30;36.03;100186.66;1745878;81;20236;-62
2022/06/09 13:36:50;;;;;;;;;;;;;;;30.16;35.95;100188.58;1744100;82;20265;-60
2022/06/09 13:39:59;;;;;;;;;;;;;;;30.06;35.96;100185.10;1744802;82;20240;-57
2022/06/09 13:43:06;;;;;;;;;;;;;;;29.90;35.98;100181.70;1744652;82;20587;-59
2022/06/09 13:46:18;;;;;;;;;;;;;;;29.87;36.04;100189.94;1743978;82;20272;-60
2022/06/09 13:49:28;;;;;;;;;;;;;;;29.91;36.09;100190.42;1761965;80;20558;-59
2022/06/09 13:52:42;;;;;;;;;;;;;;;29.97;36.07;100189.78;1761262;80;20516;-58
2022/06/09 13:55:51;;;;;;;;;;;;;;;30.05;36.08;100188.49;1754344;81;20206;-59
2022/06/09 13:58:56;;;;;;;;;;;;;;;30.15;36.08;100188.33;1753809;81;20660;-61
2022/06/09 14:02:00;;;;;;;;;;;;;;;30.24;36.03;100186.48;1759712;81;20253;-63
2022/06/09 14:05:07;;;;;;;;;;;;;;;30.31;35.93;100188.35;1758366;81;20221;-67
2022/06/09 14:08:14;;;;;;;;;;;;;;;30.34;35.82;100183.48;1764702;81;20213;-62
2022/06/09 14:11:24;;;;;;;;;;;;;;;30.38;35.76;100189.36;1771194;81;20593;-60
2022/06/09 14:14:30;;;;;;;;;;;;;;;30.37;35.64;100188.52;1771705;81;20198;-62
2022/06/09 14:17:36;;;;;;;;;;;;;;;30.33;35.57;100186.06;1772041;81;20598;-61
2022/06/09 14:20:41;;;;;;;;;;;;;;;30.30;35.49;100188.07;1765878;81;20219;-63
2022/06/09 14:23:46;;;;;;;;;;;;;;;30.22;35.32;100183.13;1771110;81;20482;-64
2022/06/09 14:26:50;;;;;;;;;;;;;;;30.19;35.30;100185.13;1771986;81;20644;-64
2022/06/09 14:29:57;;;;;;;;;;;;;;;30.24;35.33;100173.78;1764976;81;20567;-62
2022/06/09 14:33:02;;;;;;;;;;;;;;;30.29;35.27;100180.75;1756822;81;20214;-62
2022/06/09 14:36:07;;;;;;;;;;;;;;;30.35;35.24;100175.27;1752384;81;20249;-62
2022/06/09 14:39:14;;;;;;;;;;;;;;;30.39;35.17;100180.58;1756022;81;20660;-61
2022/06/09 14:42:20;;;;;;;;;;;;;;;30.40;35.16;100180.83;1769597;81;20230;-62
2022/06/09 14:45:27;;;;;;;;;;;;;;;30.44;35.14;100184.72;1764432;81;20534;-63
2022/06/09 14:48:33;;;;;;;;;;;;;;;30.43;35.13;100179.35;1738349;81;20514;-62
2022/06/09 14:51:38;;;;;;;;;;;;;;;30.47;35.10;100179.86;1734651;82;20190;-62
2022/06/09 14:54:44;;;;;;;;;;;;;;;30.56;35.06;100175.16;1734790;82;20542;-64
2022/06/09 14:57:50;;;;;;;;;;;;;;;30.63;35.06;100169.09;1736356;81;20298;-63
2022/06/09 15:00:58;;;;;;;;;;;;;;;30.70;35.02;100169.49;1734110;83;20293;-63
2022/06/09 15:04:02;;;;;;;;;;;;;;;30.70;34.94;100172.92;1734034;82;20290;-61
2022/06/09 15:07:08;;;;;;;;;;;;;;;30.71;34.93;100171.75;1717265;83;20575;-62
2022/06/09 15:10:14;;;;;;;;;;;;;;;30.72;34.87;100162.96;1733791;82;20265;-63
2022/06/09 15:13:21;;;;;;;;;;;;;;;30.77;34.85;100166.28;1733465;82;20230;-62
2022/06/09 15:16:29;;;;;;;;;;;;;;;30.84;34.85;100162.48;1748442;81;20214;-62
2022/06/09 15:19:37;;;;;;;;;;;;;;;30.85;34.80;100161.31;1771854;81;20558;-61
2022/06/09 15:22:46;;;;;;;;;;;;;;;30.83;34.77;100165.87;1772182;81;20213;-62
2022/06/09 15:25:51;;;;;;;;;;;;;;;30.79;34.73;100162.58;1772431;81;20205;-60
2022/06/09 15:29:01;;;;;;;;;;;;;;;30.73;34.70;100168.05;1773205;81;20217;-63
2022/06/09 15:32:07;;;;;;;;;;;;;;;30.68;34.63;100163.91;1719193;82;20555;-62
2022/06/09 15:35:13;;;;;;;;;;;;;;;30.54;34.57;100171.79;1724147;83;20231;-63
2022/06/09 15:38:21;;;;;;;;;;;;;;;30.44;34.60;100164.09;1724016;83;20239;-62
2022/06/09 15:41:30;;;;;;;;;;;;;;;30.43;34.61;100177.38;1724915;83;20215;-62
2022/06/09 15:44:36;;;;;;;;;;;;;;;30.80;34.55;100173.57;1710570;83;20298;-62
2022/06/09 15:47:40;;;;;;;;;;;;;;;31.33;34.09;100171.04;1725232;83;20539;-61
2022/06/09 15:50:48;;;;;;;;;;;;;;;31.36;33.92;100174.65;1712463;83;20528;-61
2022/06/09 15:53:55;;;;;;;;;;;;;;;31.45;33.94;100173.58;1724404;83;20274;-62
2022/06/09 15:57:01;;;;;;;;;;;;;;;31.63;33.74;100168.34;1715422;82;20218;-62
2022/06/09 16:00:07;;;;;;;;;;;;;;;31.66;33.73;100168.27;1710373;82;20274;-61
2022/06/09 16:03:16;;;;;;;;;;;;;;;31.82;33.70;100177.50;1744875;80;20671;-62
2022/06/09 16:06:20;;;;;;;;;;;;;;;32.11;33.38;100180.48;1742529;82;20208;-62
2022/06/09 16:09:25;;;;;;;;;;;;;;;32.03;33.21;100175.59;1744721;81;20194;-61
2022/06/09 16:12:32;;;;;;;;;;;;;;;31.73;33.35;100176.57;1769542;80;20582;-61
2022/06/09 16:15:42;;;;;;;;;;;;;;;31.43;33.52;100175.06;1772312;80;20198;-60
2022/06/09 16:18:50;;;;;;;;;;;;;;;31.16;33.65;100186.39;1733339;83;20245;-62
2022/06/09 16:21:54;;;;;;;;;;;;;;;30.98;33.73;100189.61;1733911;82;20696;-61
2022/06/09 16:24:59;;;;;;;;;;;;;;;31.07;33.56;100183.46;1756735;80;20182;-61
2022/06/09 16:28:06;;;;;;;;;;;;;;;31.10;33.53;100191.31;1774079;80;20191;-62
2022/06/09 16:31:12;;;;;;;;;;;;;;;31.58;33.36;100191.67;1774384;80;20210;-63
2022/06/09 16:34:17;;;;;;;;;;;;;;;31.78;32.97;100188.34;1773530;80;20225;-61
2022/06/09 16:37:26;;;;;;;;;;;;;;;31.48;33.00;100189.07;1773575;80;20260;-63
2022/06/09 16:40:36;;;;;;;;;;;;;;;31.10;33.17;100187.63;1773114;80;20201;-63